Time;durP1;ratioP1;P1;durP2;ratioP2;P2;SDS_P1;SDS_P2;PMS_P1;PMS_P2;Temp;Humidity;BMP_temperature;BMP_pressure;BME280_temperature;BME280_humidity;BME280_pressure;Samples;Min_cycle;Max_cycle;Signal;HPM_P1;HPM_P2
2023/01/12 00:02:07;;;;;;;8.93;1.95;;;7.50;1.00;;;;;;5053044;28;20036;-76
2023/01/12 00:04:34;;;;;;;9.05;1.80;;;7.50;1.00;;;;;;5071195;28;20474;-76
2023/01/12 00:07:00;;;;;;;9.20;1.88;;;7.60;1.00;;;;;;5070649;28;20035;-76
2023/01/12 00:09:27;;;;;;;7.50;3.13;;;7.70;1.00;;;;;;5061271;28;20032;-74
2023/01/12 00:11:53;;;;;;;10.60;3.85;;;7.70;1.00;;;;;;5047433;28;20436;-74
2023/01/12 00:14:19;;;;;;;13.80;2.75;;;7.80;1.00;;;;;;5071085;28;20377;-74
2023/01/12 00:16:45;;;;;;;13.55;2.85;;;7.80;1.00;;;;;;5072490;28;20041;-75
2023/01/12 00:19:17;;;;;;;10.10;2.45;;;7.80;1.00;;;;;;5060326;28;20043;-75
2023/01/12 00:21:58;;;;;;;8.95;2.15;;;7.70;1.00;;;;;;5042420;28;20036;-80
2023/01/12 00:24:25;;;;;;;9.75;2.20;;;7.70;1.00;;;;;;5058611;28;20382;-75
2023/01/12 00:26:53;;;;;;;9.18;1.83;;;7.80;1.00;;;;;;5055690;28;20426;-75
2023/01/12 00:29:20;;;;;;;9.75;3.08;;;7.80;1.00;;;;;;5064290;28;20028;-76
2023/01/12 00:31:46;;;;;;;8.43;1.77;;;7.70;1.00;;;;;;5053826;28;20033;-75
2023/01/12 00:34:14;;;;;;;7.88;3.00;;;7.80;1.00;;;;;;5055411;28;20385;-75
2023/01/12 00:36:41;;;;;;;14.02;2.08;;;7.80;1.00;;;;;;5035448;28;20041;-75
2023/01/12 00:39:07;;;;;;;7.10;2.20;;;7.80;1.00;;;;;;5053908;28;20040;-74
2023/01/12 00:47:06;;;;;;;13.98;2.10;;;7.90;1.00;;;;;;5066567;28;20036;-76
2023/01/12 00:49:37;;;;;;;9.95;2.03;;;7.90;1.00;;;;;;5065669;28;20040;-79
2023/01/12 00:52:05;;;;;;;8.13;1.88;;;7.80;1.00;;;;;;5061707;28;20036;-78
2023/01/12 00:54:32;;;;;;;8.65;1.48;;;7.90;1.00;;;;;;5054164;28;20044;-75
2023/01/12 00:56:58;;;;;;;11.30;1.73;;;7.90;1.00;;;;;;5053576;28;20061;-76
2023/01/12 00:59:24;;;;;;;7.10;1.55;;;7.90;1.00;;;;;;5052741;28;20039;-75
2023/01/12 01:01:51;;;;;;;14.25;2.17;;;7.80;1.00;;;;;;5046100;28;20044;-75
2023/01/12 01:04:17;;;;;;;18.55;3.35;;;7.80;1.00;;;;;;5062350;28;20406;-76
2023/01/12 01:06:43;;;;;;;5.93;1.98;;;7.90;1.00;;;;;;5053124;28;20033;-78
2023/01/12 01:09:09;;;;;;;8.85;2.22;;;7.90;1.00;;;;;;5045095;28;20033;-76
2023/01/12 01:11:35;;;;;;;12.27;2.80;;;7.90;1.00;;;;;;5062323;28;20036;-75
2023/01/12 01:14:02;;;;;;;6.07;2.00;;;7.90;1.00;;;;;;5052646;28;20044;-76
2023/01/12 01:16:28;;;;;;;7.90;2.15;;;7.90;1.00;;;;;;5069539;28;20033;-75
2023/01/12 01:18:55;;;;;;;8.75;1.73;;;8.00;1.00;;;;;;5071561;28;20041;-76
2023/01/12 01:21:22;;;;;;;5.22;1.38;;;8.00;1.00;;;;;;5056796;28;20029;-76
2023/01/12 01:23:48;;;;;;;9.43;1.67;;;8.10;1.00;;;;;;5041682;28;20064;-76
2023/01/12 01:26:17;;;;;;;9.63;1.73;;;8.10;1.00;;;;;;5061505;28;20033;-75
2023/01/12 01:28:43;;;;;;;10.77;2.63;;;8.10;1.00;;;;;;5056482;28;20036;-75
2023/01/12 01:31:12;;;;;;;11.70;1.60;;;8.00;1.00;;;;;;5058165;28;20363;-75
2023/01/12 01:33:40;;;;;;;12.57;1.48;;;8.10;1.00;;;;;;5034175;28;20048;-82
2023/01/12 01:36:07;;;;;;;8.38;1.52;;;8.10;1.00;;;;;;5071710;28;20033;-75
2023/01/12 01:38:33;;;;;;;15.57;2.20;;;8.20;1.00;;;;;;5051844;28;20411;-76
2023/01/12 01:41:00;;;;;;;6.38;1.50;;;8.20;1.00;;;;;;5057422;28;20367;-76
2023/01/12 01:43:27;;;;;;;13.10;1.80;;;8.20;1.00;;;;;;5058449;28;20370;-77
2023/01/12 01:46:08;;;;;;;5.00;1.48;;;8.20;1.00;;;;;;5041969;28;20059;-76
2023/01/12 01:48:37;;;;;;;5.97;1.48;;;8.20;1.00;;;;;;5062111;28;20037;-76
2023/01/12 01:51:11;;;;;;;10.98;2.38;;;8.20;1.00;;;;;;5058561;28;20452;-77
2023/01/12 01:53:40;;;;;;;15.38;1.73;;;8.20;1.00;;;;;;5052791;28;20051;-77
2023/01/12 01:56:11;;;;;;;14.52;4.18;;;8.10;1.00;;;;;;5052683;28;20025;-77
2023/01/12 01:58:39;;;;;;;;;;;8.10;1.00;;;;;;5062110;28;20040;-77
2023/01/12 02:01:06;;;;;;;14.60;3.42;;;8.20;1.00;;;;;;5043975;28;19911;-75
2023/01/12 02:03:33;;;;;;;8.00;2.00;;;8.20;1.00;;;;;;5071929;28;20041;-77
2023/01/12 02:05:59;;;;;;;10.43;2.17;;;8.10;1.00;;;;;;5052479;28;20394;-76
2023/01/12 02:08:33;;;;;;;9.35;1.63;;;8.10;1.00;;;;;;5033435;28;20382;-77
2023/01/12 02:11:01;;;;;;;10.23;1.77;;;8.10;1.00;;;;;;5053439;28;20520;-77
2023/01/12 02:16:24;;;;;;;10.98;2.28;;;8.10;1.00;;;;;;5052566;28;20390;-76
2023/01/12 02:19:33;;;;;;;19.88;2.35;;;8.10;1.00;;;;;;5064142;28;20454;-78
2023/01/12 02:22:17;;;;;;;12.05;3.63;;;8.10;1.00;;;;;;5063673;28;20037;-76
2023/01/12 02:25:18;;;;;;;8.57;3.28;;;8.10;1.00;;;;;;5048262;28;20406;-74
2023/01/12 02:28:03;;;;;;;8.90;3.05;;;8.10;1.00;;;;;;5065322;28;20450;-75
2023/01/12 02:30:45;;;;;;;8.32;1.67;;;8.10;1.00;;;;;;5048622;28;20044;-75
2023/01/12 02:33:39;;;;;;;5.00;1.73;;;8.10;1.00;;;;;;5062667;28;20379;-75
2023/01/12 02:36:34;;;;;;;4.30;1.50;;;8.00;1.00;;;;;;5053056;28;20033;-76
2023/01/12 02:39:22;;;;;;;7.75;1.90;;;8.00;1.00;;;;;;5060139;28;20397;-76
2023/01/12 02:42:40;;;;;;;8.95;2.88;;;8.00;1.00;;;;;;5052018;28;20052;-76
2023/01/12 02:45:25;;;;;;;12.68;2.08;;;8.00;1.00;;;;;;5053139;28;20386;-76
2023/01/12 02:48:25;;;;;;;11.70;2.22;;;8.00;1.00;;;;;;5061994;28;20036;-76
2023/01/12 02:50:56;;;;;;;9.93;2.28;;;8.10;1.00;;;;;;5051487;28;20028;-76
2023/01/12 02:53:50;;;;;;;8.80;1.88;;;8.20;1.00;;;;;;5057610;28;20323;-76
2023/01/12 02:56:43;;;;;;;9.07;1.90;;;8.30;1.00;;;;;;5036688;28;20040;-76
2023/01/12 02:59:21;;;;;;;12.52;1.98;;;8.30;1.00;;;;;;5055635;28;20044;-76
2023/01/12 03:01:54;;;;;;;10.10;2.53;;;8.20;1.00;;;;;;5037764;28;20099;-76
2023/01/12 03:04:22;;;;;;;11.07;1.83;;;8.20;1.00;;;;;;5071819;28;20051;-77
2023/01/12 03:06:57;;;;;;;12.52;2.30;;;8.20;1.00;;;;;;5075627;28;20040;-76
2023/01/12 03:09:33;;;;;;;10.35;2.00;;;8.20;1.00;;;;;;5062989;28;20037;-77
2023/01/12 03:12:05;;;;;;;8.32;2.08;;;8.20;1.00;;;;;;5061501;28;20059;-76
2023/01/12 03:14:35;;;;;;;10.23;2.05;;;8.30;1.00;;;;;;5058511;28;20037;-77
2023/01/12 03:17:09;;;;;;;11.65;2.00;;;8.30;1.00;;;;;;5050493;28;20060;-76
2023/01/12 03:19:35;;;;;;;8.30;1.90;;;8.30;1.00;;;;;;5074942;28;20028;-76
2023/01/12 03:22:08;;;;;;;10.00;2.75;;;8.30;1.00;;;;;;5080050;28;20274;-76
2023/01/12 03:24:39;;;;;;;7.85;1.83;;;8.30;1.00;;;;;;5085463;28;20401;-82
2023/01/12 03:27:16;;;;;;;9.43;1.95;;;8.40;1.00;;;;;;5077771;28;20040;-76
2023/01/12 03:29:50;;;;;;;12.88;2.50;;;8.40;1.00;;;;;;5085342;28;20040;-83
2023/01/12 03:32:19;;;;;;;10.68;2.00;;;8.40;1.00;;;;;;5066858;28;20051;-78
2023/01/12 03:34:46;;;;;;;17.63;2.83;;;8.40;1.00;;;;;;5071217;28;20036;-77
2023/01/12 03:37:35;;;;;;;9.65;2.15;;;8.40;1.00;;;;;;5084615;28;20441;-76
2023/01/12 03:40:22;;;;;;;13.20;2.28;;;8.50;1.00;;;;;;5070707;28;20039;-76
2023/01/12 03:42:57;;;;;;;10.65;3.05;;;8.40;1.00;;;;;;5083403;28;20472;-76
2023/01/12 03:45:42;;;;;;;16.83;3.65;;;8.40;1.00;;;;;;5083499;28;20044;-77
2023/01/12 03:48:21;;;;;;;10.15;2.65;;;8.40;1.00;;;;;;5090230;28;20039;-77
2023/01/12 03:50:59;;;;;;;7.88;2.35;;;8.40;1.00;;;;;;5089523;28;20032;-76
2023/01/12 03:53:25;;;;;;;11.75;1.75;;;8.40;1.00;;;;;;5087834;28;20036;-77
2023/01/12 03:55:56;;;;;;;11.23;2.03;;;8.50;1.00;;;;;;5084421;28;20037;-77
2023/01/12 03:58:23;;;;;;;11.25;1.95;;;8.50;1.00;;;;;;5083988;28;20032;-76
2023/01/12 04:00:50;;;;;;;7.45;1.90;;;8.40;1.00;;;;;;5084147;28;20378;-76
2023/01/12 04:03:16;;;;;;;9.00;1.60;;;8.50;1.00;;;;;;5084155;28;20470;-76
2023/01/12 04:05:44;;;;;;;12.52;2.20;;;8.50;1.00;;;;;;5091169;28;20077;-76
2023/01/12 04:08:14;;;;;;;12.13;2.00;;;8.50;1.00;;;;;;5074383;28;20035;-78
2023/01/12 04:10:40;;;;;;;10.70;1.92;;;8.50;1.00;;;;;;5084046;28;20028;-76
2023/01/12 04:13:06;;;;;;;11.80;2.72;;;8.50;1.00;;;;;;5076382;28;20032;-76
2023/01/12 04:15:36;;;;;;;7.70;2.10;;;8.50;1.00;;;;;;5081677;28;20397;-74
2023/01/12 04:18:04;;;;;;;12.18;2.83;;;8.50;1.00;;;;;;5074208;28;20056;-76
2023/01/12 04:20:30;;;;;;;10.63;1.83;;;8.40;1.00;;;;;;5058089;28;20044;-77
2023/01/12 04:22:56;;;;;;;10.30;1.98;;;8.40;1.00;;;;;;5038976;28;20044;-76
2023/01/12 04:25:23;;;;;;;7.53;1.63;;;8.40;1.00;;;;;;5054570;28;20040;-76
2023/01/12 04:27:52;;;;;;;10.32;3.45;;;8.50;1.00;;;;;;5068151;28;20348;-76
2023/01/12 04:30:22;;;;;;;12.32;2.42;;;8.50;1.00;;;;;;5047011;28;20040;-76
2023/01/12 04:32:49;;;;;;;9.68;2.10;;;8.40;1.00;;;;;;5063231;28;20047;-76
2023/01/12 04:35:15;;;;;;;10.95;1.60;;;8.40;1.00;;;;;;5060445;28;20367;-77
2023/01/12 04:37:42;;;;;;;6.05;1.60;;;8.50;1.00;;;;;;5066690;28;20381;-78
2023/01/12 04:40:10;;;;;;;6.82;1.60;;;8.50;1.00;;;;;;5059060;28;20028;-76
2023/01/12 04:45:22;;;;;;;6.47;1.55;;;8.50;1.00;;;;;;5063655;28;20033;-77
2023/01/12 04:47:48;;;;;;;8.52;2.00;;;8.50;1.00;;;;;;5034991;28;20056;-77
2023/01/12 04:50:14;;;;;;;14.43;1.75;;;8.50;1.00;;;;;;5061687;28;20494;-76
2023/01/12 04:52:40;;;;;;;8.65;1.70;;;8.50;1.00;;;;;;5040240;28;20032;-76
2023/01/12 04:55:07;;;;;;;7.55;1.33;;;8.50;1.00;;;;;;5064262;28;20270;-76
2023/01/12 04:57:33;;;;;;;7.32;1.65;;;8.50;1.00;;;;;;5037008;28;20048;-77
2023/01/12 05:00:00;;;;;;;9.85;1.67;;;8.50;1.00;;;;;;5064586;28;20029;-76
2023/01/12 05:02:26;;;;;;;11.55;2.97;;;8.60;1.00;;;;;;5037253;28;20033;-76
2023/01/12 05:04:52;;;;;;;8.77;2.20;;;8.50;1.00;;;;;;5064936;28;20482;-76
2023/01/12 05:07:19;;;;;;;11.25;1.90;;;8.60;1.00;;;;;;5054997;28;20021;-77
2023/01/12 05:12:30;;;;;;;8.50;2.25;;;8.60;1.00;;;;;;5054105;28;20393;-77
2023/01/12 05:14:56;;;;;;;7.03;1.90;;;8.60;1.00;;;;;;5056783;28;20052;-76
2023/01/12 05:17:22;;;;;;;8.20;1.70;;;8.50;1.00;;;;;;5054468;28;20044;-77
2023/01/12 05:19:48;;;;;;;9.30;1.95;;;8.50;1.00;;;;;;5082018;28;20039;-81
2023/01/12 05:22:15;;;;;;;11.75;1.98;;;8.50;1.00;;;;;;5080802;28;20041;-76
2023/01/12 05:24:41;;;;;;;10.63;2.25;;;8.60;1.00;;;;;;5078637;28;20028;-82
2023/01/12 05:27:07;;;;;;;14.95;2.15;;;8.60;1.00;;;;;;5079506;28;20044;-81
2023/01/12 05:29:33;;;;;;;5.18;1.90;;;8.60;1.00;;;;;;5084186;28;20040;-75
2023/01/12 05:31:59;;;;;;;9.95;2.33;;;8.60;1.00;;;;;;5077147;28;20029;-79
2023/01/12 05:34:25;;;;;;;10.75;2.15;;;8.60;1.00;;;;;;5068864;28;20047;-79
2023/01/12 05:36:51;;;;;;;8.52;1.80;;;8.60;1.00;;;;;;5079371;28;20056;-76
2023/01/12 05:39:18;;;;;;;9.15;2.00;;;8.60;1.00;;;;;;5078274;28;20028;-75
2023/01/12 05:44:30;;;;;;;9.85;1.70;;;8.50;1.00;;;;;;5089712;28;20046;-76
2023/01/12 05:46:56;;;;;;;5.80;1.95;;;8.50;1.00;;;;;;5086472;28;20032;-78
2023/01/12 05:49:22;;;;;;;8.10;1.70;;;8.50;1.00;;;;;;5070780;28;20040;-78
2023/01/12 05:51:48;;;;;;;6.63;1.30;;;8.50;1.00;;;;;;5080035;28;20032;-77
2023/01/12 05:54:14;;;;;;;10.50;1.73;;;8.50;1.00;;;;;;5071708;28;20074;-78
2023/01/12 05:56:41;;;;;;;9.90;1.52;;;8.50;1.00;;;;;;5071618;28;20397;-77
2023/01/12 05:59:09;;;;;;;8.30;1.40;;;8.50;1.00;;;;;;5071192;28;20024;-76
2023/01/12 06:01:36;;;;;;;8.10;1.55;;;8.60;1.00;;;;;;5078206;28;20377;-75
2023/01/12 06:04:02;;;;;;;9.57;2.45;;;8.60;1.00;;;;;;5084230;28;20040;-75
2023/01/12 06:06:30;;;;;;;10.23;1.70;;;8.60;1.00;;;;;;5079376;28;20039;-79
2023/01/12 06:08:57;;;;;;;12.52;2.20;;;8.60;1.00;;;;;;5090686;28;20028;-76
2023/01/12 06:14:09;;;;;;;10.45;2.13;;;8.60;1.00;;;;;;5078163;28;20043;-75
2023/01/12 06:16:41;;;;;;;8.73;2.38;;;8.50;1.00;;;;;;5083282;28;20501;-76
2023/01/12 06:19:09;;;;;;;10.07;1.70;;;8.50;1.00;;;;;;5064026;28;20032;-76
2023/01/12 06:21:36;;;;;;;11.23;3.65;;;8.50;1.00;;;;;;5054358;28;20037;-76
2023/01/12 06:24:03;;;;;;;8.45;1.77;;;8.40;1.00;;;;;;5070637;28;20040;-76
2023/01/12 06:26:29;;;;;;;11.23;2.15;;;8.40;1.00;;;;;;5059030;28;20076;-75
2023/01/12 06:28:55;;;;;;;9.88;2.55;;;8.40;1.00;;;;;;5050116;28;20044;-76
2023/01/12 06:31:21;;;;;;;7.05;1.90;;;8.40;1.00;;;;;;5052665;28;20374;-77
2023/01/12 06:33:47;;;;;;;6.15;1.33;;;8.50;1.00;;;;;;5059258;28;20036;-77
2023/01/12 06:36:13;;;;;;;6.65;1.65;;;8.60;1.00;;;;;;5064522;28;20032;-76
2023/01/12 06:38:40;;;;;;;8.65;2.40;;;8.60;1.00;;;;;;5040024;28;20033;-76
2023/01/12 06:42:27;;;;;;;6.65;2.35;;;8.60;1.00;;;;;;5057672;28;20040;-77
2023/01/12 06:43:56;;;;;;;5.25;1.33;;;8.50;1.00;;;;;;5059334;28;20040;-77
2023/01/12 06:46:22;;;;;;;5.72;1.83;;;8.50;1.00;;;;;;5038942;28;20025;-76
2023/01/12 06:48:49;;;;;;;17.58;2.13;;;8.50;1.00;;;;;;5058088;28;20397;-76
2023/01/12 06:51:15;;;;;;;9.23;2.40;;;8.50;1.00;;;;;;5051821;28;20033;-76
2023/01/12 06:53:41;;;;;;;18.13;4.38;;;8.50;1.00;;;;;;5058997;28;20055;-77
2023/01/12 06:56:07;;;;;;;10.38;1.65;;;8.50;1.00;;;;;;5057422;28;20386;-78
2023/01/12 06:58:33;;;;;;;9.88;2.00;;;8.50;1.00;;;;;;5030724;28;20049;-76
2023/01/12 07:01:01;;;;;;;13.98;2.10;;;8.50;1.00;;;;;;5051077;28;20031;-77
2023/01/12 07:03:27;;;;;;;11.75;2.15;;;8.40;1.00;;;;;;5058494;28;20036;-76
2023/01/12 07:05:56;;;;;;;6.30;1.60;;;8.40;1.00;;;;;;5066817;28;20044;-83
2023/01/12 07:08:22;;;;;;;9.77;1.58;;;8.50;1.00;;;;;;5057341;28;20040;-77
2023/01/12 07:10:48;;;;;;;8.80;1.95;;;8.40;1.00;;;;;;5061884;28;20128;-77
2023/01/12 07:13:14;;;;;;;6.43;1.85;;;8.40;1.00;;;;;;5034631;28;20040;-75
2023/01/12 07:15:41;;;;;;;6.78;1.92;;;8.50;1.00;;;;;;5058311;28;20029;-77
2023/01/12 07:18:07;;;;;;;7.28;1.60;;;8.50;1.00;;;;;;5074907;28;20055;-78
2023/01/12 07:20:33;;;;;;;6.13;1.45;;;8.40;1.00;;;;;;5073855;28;20041;-76
2023/01/12 07:22:59;;;;;;;9.13;2.05;;;8.40;1.00;;;;;;5083917;28;20370;-76
2023/01/12 07:25:25;;;;;;;10.18;2.08;;;8.40;1.00;;;;;;5079456;28;20033;-76
2023/01/12 07:27:56;;;;;;;5.95;1.92;;;8.50;1.00;;;;;;5092200;28;20040;-77
2023/01/12 07:30:24;;;;;;;8.60;1.60;;;8.40;1.00;;;;;;5091396;28;20025;-76
2023/01/12 07:32:51;;;;;;;6.57;1.50;;;8.50;1.00;;;;;;5085129;28;20032;-76
2023/01/12 07:35:18;;;;;;;10.07;2.22;;;8.50;1.00;;;;;;5078123;28;20032;-76
2023/01/12 07:37:48;;;;;;;14.15;1.98;;;8.50;1.00;;;;;;5090130;28;20032;-80
2023/01/12 07:40:15;;;;;;;12.15;2.30;;;8.50;1.00;;;;;;5073348;28;20903;-76
2023/01/12 07:42:41;;;;;;;8.23;1.80;;;8.50;1.00;;;;;;5059765;28;20043;-76
2023/01/12 07:45:08;;;;;;;6.85;1.63;;;8.50;1.00;;;;;;5083940;28;20041;-76
2023/01/12 07:47:34;;;;;;;8.00;1.60;;;8.60;1.00;;;;;;5091607;28;20223;-75
2023/01/12 07:50:01;;;;;;;7.63;1.17;;;8.60;1.00;;;;;;5076077;28;20044;-75
2023/01/12 07:52:28;;;;;;;7.97;1.95;;;8.60;1.00;;;;;;5083461;28;20021;-76
2023/01/12 07:54:54;;;;;;;7.30;2.08;;;8.60;1.00;;;;;;5082440;28;20055;-78
2023/01/12 07:57:20;;;;;;;6.93;1.48;;;8.70;1.00;;;;;;5077513;28;20047;-78
2023/01/12 07:59:46;;;;;;;6.10;1.50;;;8.70;1.00;;;;;;5081722;28;20044;-77
2023/01/12 08:02:16;;;;;;;12.82;2.85;;;8.60;1.00;;;;;;5081056;28;20047;-78
2023/01/12 08:04:43;;;;;;;3.97;1.05;;;8.60;1.00;;;;;;5093121;28;20051;-78
2023/01/12 08:07:09;;;;;;;8.45;1.67;;;8.70;1.00;;;;;;5071891;28;20049;-79
2023/01/12 08:09:36;;;;;;;5.10;2.08;;;8.60;1.00;;;;;;5087013;28;20413;-81
2023/01/12 08:12:02;;;;;;;14.98;1.75;;;8.60;1.00;;;;;;5089675;28;20032;-79
2023/01/12 08:14:35;;;;;;;5.25;1.58;;;8.60;1.00;;;;;;5082315;28;20028;-78
2023/01/12 08:17:05;;;;;;;10.27;3.40;;;8.60;1.00;;;;;;5079008;28;20045;-75
2023/01/12 08:19:40;;;;;;;8.63;2.33;;;8.60;1.00;;;;;;5081070;28;20039;-81
2023/01/12 08:22:14;;;;;;;3.92;1.30;;;8.60;1.00;;;;;;5076238;28;20033;-80
2023/01/12 08:24:47;;;;;;;5.95;1.58;;;8.60;1.00;;;;;;5081550;28;20032;-78
2023/01/12 08:27:16;;;;;;;4.28;1.02;;;8.60;1.00;;;;;;5074903;28;20056;-77
2023/01/12 08:29:47;;;;;;;8.02;1.42;;;8.70;1.00;;;;;;5087694;28;20028;-76
2023/01/12 08:32:17;;;;;;;12.43;1.55;;;8.70;1.00;;;;;;5094278;28;20035;-78
2023/01/12 08:34:47;;;;;;;9.33;1.07;;;8.70;1.00;;;;;;5084004;28;20040;-78
2023/01/12 08:37:17;;;;;;;9.80;1.55;;;8.70;1.00;;;;;;5084684;28;20035;-77
2023/01/12 08:39:44;;;;;;;8.82;1.75;;;8.70;1.00;;;;;;5077187;28;20024;-77
2023/01/12 08:42:11;;;;;;;15.15;3.10;;;8.70;1.00;;;;;;5080806;28;20386;-77
2023/01/12 08:44:37;;;;;;;5.72;1.60;;;8.70;1.00;;;;;;5082058;28;20036;-81
2023/01/12 08:47:05;;;;;;;8.65;2.03;;;8.70;1.00;;;;;;5082700;28;20067;-81
2023/01/12 08:49:32;;;;;;;17.40;2.63;;;8.70;1.00;;;;;;5066168;28;20063;-77
2023/01/12 08:51:58;;;;;;;10.20;1.40;;;8.70;1.00;;;;;;5073798;28;20043;-79
2023/01/12 08:54:25;;;;;;;4.60;1.50;;;8.70;1.00;;;;;;5075421;28;20037;-79
2023/01/12 08:56:53;;;;;;;5.80;1.27;;;8.70;1.00;;;;;;5077235;28;20043;-81
2023/01/12 08:59:19;;;;;;;8.35;1.77;;;8.70;1.00;;;;;;5082523;28;20278;-81
2023/01/12 09:01:46;;;;;;;9.10;1.52;;;8.70;1.00;;;;;;5080257;28;20040;-83
2023/01/12 09:04:12;;;;;;;7.15;1.85;;;8.70;1.00;;;;;;5083034;28;20036;-79
2023/01/12 09:06:41;;;;;;;4.72;1.35;;;8.70;1.00;;;;;;5085859;28;20036;-78
2023/01/12 09:09:10;;;;;;;11.82;1.33;;;8.70;1.00;;;;;;5089645;28;20380;-82
2023/01/12 09:11:40;;;;;;;4.97;1.38;;;8.70;1.00;;;;;;5081725;28;20051;-77
2023/01/12 09:14:06;;;;;;;5.00;0.90;;;8.70;1.00;;;;;;5090378;28;20047;-79
2023/01/12 09:16:33;;;;;;;4.72;1.45;;;8.80;1.00;;;;;;5077409;28;20297;-77
2023/01/12 09:18:59;;;;;;;4.95;1.25;;;8.80;1.00;;;;;;5042626;28;20052;-76
2023/01/12 09:21:28;;;;;;;11.50;3.53;;;8.70;1.00;;;;;;5074018;28;20029;-77
2023/01/12 09:23:54;;;;;;;2.63;1.13;;;8.80;1.00;;;;;;5068436;28;20040;-78
2023/01/12 09:26:24;;;;;;;3.75;0.98;;;8.80;1.00;;;;;;5068865;28;20044;-77
2023/01/12 09:28:51;;;;;;;2.95;0.77;;;8.80;1.00;;;;;;5045312;28;20032;-78
2023/01/12 09:31:21;;;;;;;8.50;2.15;;;8.90;1.00;;;;;;5060067;28;20033;-79
2023/01/12 09:33:47;;;;;;;6.47;1.40;;;8.90;1.00;;;;;;5035785;28;20044;-78
2023/01/12 09:36:19;;;;;;;9.27;1.90;;;8.90;1.00;;;;;;5053244;28;20048;-78
2023/01/12 09:38:46;;;;;;;9.52;2.03;;;9.00;1.00;;;;;;5040305;28;20051;-80
2023/01/12 09:47:39;;;;;;;7.00;2.45;;;9.30;1.00;;;;;;5051251;28;21236;-77
2023/01/12 09:50:05;;;;;;;7.85;2.10;;;9.40;1.00;;;;;;5034930;28;20056;-78
2023/01/12 09:52:37;;;;;;;5.97;1.67;;;9.50;1.00;;;;;;5035951;28;20033;-79
2023/01/12 09:55:05;;;;;;;4.18;1.33;;;9.50;1.00;;;;;;5041789;28;20044;-79
2023/01/12 09:57:44;;;;;;;3.80;1.08;;;9.60;1.00;;;;;;5064074;28;20040;-78
2023/01/12 10:00:12;;;;;;;11.05;1.40;;;9.60;1.00;;;;;;5058693;28;20029;-78
2023/01/12 10:02:42;;;;;;;5.65;1.63;;;9.70;1.00;;;;;;5066522;28;20480;-79
2023/01/12 10:05:41;;;;;;;6.82;1.17;;;9.70;1.00;;;;;;5059687;28;20039;-78
2023/01/12 10:08:16;;;;;;;11.68;2.10;;;9.70;1.00;;;;;;5064136;28;20036;-79
2023/01/12 10:11:21;;;;;;;11.35;2.25;;;9.70;1.00;;;;;;5041313;28;20036;-78
2023/01/12 10:14:05;;;;;;;7.75;2.08;;;9.70;1.00;;;;;;5014888;28;20045;-78
2023/01/12 10:16:55;;;;;;;6.85;2.58;;;9.80;1.00;;;;;;5041145;28;20049;-77
2023/01/12 10:19:45;;;;;;;5.07;1.45;;;9.70;1.00;;;;;;5065184;28;20040;-75
2023/01/12 10:22:35;;;;;;;6.57;1.17;;;9.80;1.00;;;;;;5057019;28;20033;-77
2023/01/12 10:25:22;;;;;;;9.02;1.40;;;9.80;1.00;;;;;;5058996;28;20037;-82
2023/01/12 10:27:51;;;;;;;8.30;1.50;;;9.80;1.00;;;;;;5033251;28;20397;-76
2023/01/12 10:30:27;;;;;;;10.02;2.83;;;9.90;1.00;;;;;;5052199;28;20029;-78
2023/01/12 10:32:54;;;;;;;4.65;1.52;;;10.00;1.00;;;;;;5045869;28;20067;-77
2023/01/12 10:35:22;;;;;;;8.23;1.52;;;10.10;1.00;;;;;;5064865;28;20032;-80
2023/01/12 10:37:54;;;;;;;8.60;1.58;;;10.00;1.00;;;;;;5039277;28;20029;-77
2023/01/12 10:40:26;;;;;;;6.25;1.67;;;10.00;1.00;;;;;;5046852;28;20036;-78
2023/01/12 10:43:30;;;;;;;6.00;1.40;;;10.00;1.00;;;;;;5041110;28;20025;-77
2023/01/12 10:46:11;;;;;;;3.42;1.25;;;10.00;1.00;;;;;;5058568;28;20041;-77
2023/01/12 10:48:39;;;;;;;;;;;10.00;1.00;;;;;;5030559;28;20051;-78
2023/01/12 10:51:18;;;;;;;8.68;2.20;;;10.00;1.00;;;;;;5063065;28;19912;-76
2023/01/12 10:53:48;;;;;;;2.58;0.95;;;10.00;1.00;;;;;;5058346;28;20462;-78
2023/01/12 10:56:40;;;;;;;4.03;1.10;;;10.10;1.00;;;;;;5033436;28;20044;-80
2023/01/12 10:59:18;;;;;;;14.65;2.67;;;10.10;1.00;;;;;;5045300;28;20037;-78
2023/01/12 11:01:57;;;;;;;9.40;1.73;;;10.10;1.00;;;;;;5045706;28;20037;-78
2023/01/12 11:04:28;;;;;;;7.13;2.25;;;10.10;1.00;;;;;;5053141;28;20398;-77
2023/01/12 11:07:09;;;;;;;10.23;0.95;;;10.10;1.00;;;;;;5035708;28;20516;-89
2023/01/12 11:09:36;;;;;;;3.20;0.90;;;10.10;1.00;;;;;;5069821;28;20500;-79
2023/01/12 11:12:23;;;;;;;5.22;1.35;;;10.10;1.00;;;;;;5040411;28;20048;-77
2023/01/12 11:15:08;;;;;;;8.73;1.58;;;10.10;1.00;;;;;;5032894;28;20482;-80
2023/01/12 11:17:37;;;;;;;4.10;1.15;;;10.20;1.00;;;;;;5064840;28;20071;-80
2023/01/12 11:20:39;;;;;;;4.75;1.17;;;10.10;1.00;;;;;;5073276;28;20051;-76
2023/01/12 11:23:35;;;;;;;4.85;1.48;;;10.20;1.00;;;;;;5072946;28;20043;-78
2023/01/12 11:26:07;;;;;;;8.30;1.20;;;10.20;1.00;;;;;;5019556;28;20056;-77
2023/01/12 11:28:39;;;;;;;2.20;0.85;;;10.20;1.00;;;;;;5076695;28;20044;-78
2023/01/12 11:31:23;;;;;;;3.30;1.60;;;10.20;1.00;;;;;;5077096;28;20039;-86
2023/01/12 11:33:56;;;;;;;3.85;1.08;;;10.30;1.00;;;;;;5076649;28;20052;-78
2023/01/12 11:36:34;;;;;;;4.97;1.08;;;10.30;1.00;;;;;;5079637;28;20041;-78
2023/01/12 11:39:14;;;;;;;2.83;0.63;;;10.30;1.00;;;;;;5084626;28;20115;-79
2023/01/12 11:43:47;;;;;;;2.47;0.70;;;10.40;1.00;;;;;;5090961;28;20037;-77
2023/01/12 11:44:36;;;;;;;7.70;1.35;;;10.40;1.00;;;;;;5092789;28;20050;-79
2023/01/12 11:47:11;;;;;;;5.38;2.00;;;10.40;1.00;;;;;;5087600;28;20044;-78
2023/01/12 11:50:07;;;;;;;4.50;0.90;;;10.50;1.00;;;;;;5060617;28;20044;-77
2023/01/12 11:52:34;;;;;;;5.55;0.70;;;10.50;1.00;;;;;;5073792;28;20037;-76
2023/01/12 11:55:00;;;;;;;4.03;0.60;;;10.60;1.00;;;;;;5071849;28;20037;-77
2023/01/12 11:58:08;;;;;;;5.25;1.00;;;10.60;1.00;;;;;;5071347;28;20043;-76
2023/01/12 12:00:45;;;;;;;3.78;0.70;;;10.50;1.00;;;;;;5086228;28;20044;-75
2023/01/12 12:03:39;;;;;;;3.08;0.70;;;10.60;1.00;;;;;;5089694;28;20036;-76
2023/01/12 12:06:32;;;;;;;3.00;0.55;;;10.60;1.00;;;;;;5082779;28;20094;-76
2023/01/12 12:09:07;;;;;;;2.92;0.75;;;10.50;1.00;;;;;;5075656;28;20028;-76
2023/01/12 12:11:44;;;;;;;3.40;0.90;;;10.50;1.00;;;;;;5076175;28;20044;-77
2023/01/12 12:14:48;;;;;;;5.63;0.80;;;10.40;1.00;;;;;;5091141;28;20028;-76
2023/01/12 12:17:25;;;;;;;4.65;1.10;;;10.40;1.00;;;;;;5071112;28;20049;-77
2023/01/12 12:20:21;;;;;;;4.57;1.10;;;10.40;1.00;;;;;;5055322;28;20029;-76
2023/01/12 12:23:02;;;;;;;3.63;1.40;;;10.40;1.00;;;;;;5043324;28;20037;-76
2023/01/12 12:25:51;;;;;;;3.10;1.35;;;10.30;1.00;;;;;;5033676;28;20417;-76
2023/01/12 12:28:32;;;;;;;2.38;0.60;;;10.40;1.00;;;;;;5054742;28;20045;-75
2023/01/12 12:31:01;;;;;;;4.22;0.75;;;10.40;1.00;;;;;;5060531;28;20040;-77
2023/01/12 12:33:55;;;;;;;5.35;0.75;;;10.40;1.00;;;;;;5061315;28;20040;-78
2023/01/12 12:37:06;;;;;;;3.47;0.60;;;10.40;1.00;;;;;;5054215;28;20033;-77
2023/01/12 12:39:50;;;;;;;2.58;0.88;;;10.40;1.00;;;;;;5053636;28;20044;-74
2023/01/12 12:46:03;;;;;;;3.50;0.80;;;10.40;1.00;;;;;;5072952;28;20032;-77
2023/01/12 12:48:43;;;;;;;3.08;0.52;;;10.30;1.00;;;;;;5042064;28;20474;-78
2023/01/12 12:51:11;;;;;;;3.10;1.60;;;10.40;1.00;;;;;;5049248;28;20044;-81
2023/01/12 12:53:48;;;;;;;5.97;0.90;;;10.30;1.00;;;;;;5049308;28;20048;-78
2023/01/12 12:56:21;;;;;;;5.20;0.95;;;10.30;1.00;;;;;;5051715;28;20040;-79
2023/01/12 12:58:54;;;;;;;3.30;0.65;;;10.20;1.00;;;;;;5047627;28;20060;-77
2023/01/12 13:01:23;;;;;;;4.45;1.33;;;10.20;1.00;;;;;;5041296;28;20477;-80
2023/01/12 13:03:54;;;;;;;3.92;2.10;;;10.20;1.00;;;;;;5067096;28;20480;-77
2023/01/12 13:06:26;;;;;;;4.35;0.90;;;10.20;1.00;;;;;;5046681;28;20123;-78
2023/01/12 13:09:13;;;;;;;5.43;1.00;;;10.20;1.00;;;;;;5042981;28;20099;-79
2023/01/12 13:11:46;;;;;;;5.10;1.42;;;10.20;1.00;;;;;;5038106;28;20052;-79
2023/01/12 13:14:39;;;;;;;3.75;0.90;;;10.20;1.00;;;;;;5054568;28;20032;-79
2023/01/12 13:17:25;;;;;;;2.85;1.00;;;10.20;1.00;;;;;;5061612;28;20052;-77
2023/01/12 13:20:01;;;;;;;7.07;1.15;;;10.20;1.00;;;;;;5035545;28;20365;-79
2023/01/12 13:22:31;;;;;;;3.67;1.02;;;10.20;1.00;;;;;;5043753;28;20037;-78
2023/01/12 13:25:22;;;;;;;2.00;0.88;;;10.20;1.00;;;;;;5037010;28;20045;-81
2023/01/12 13:27:48;;;;;;;5.00;0.95;;;10.20;1.00;;;;;;5036602;28;20033;-78
2023/01/12 13:30:17;;;;;;;4.72;1.17;;;10.20;1.00;;;;;;5057802;28;20039;-76
2023/01/12 13:32:55;;;;;;;3.58;0.95;;;10.20;1.00;;;;;;5050392;28;20051;-78
2023/01/12 13:35:23;;;;;;;2.65;0.77;;;10.20;1.00;;;;;;5046633;28;20049;-77
2023/01/12 13:38:19;;;;;;;4.03;1.10;;;10.20;1.00;;;;;;5056275;28;20036;-79
2023/01/12 13:40:45;;;;;;;4.15;1.30;;;10.20;1.00;;;;;;5045243;28;20505;-80
2023/01/12 13:43:18;;;;;;;6.65;3.28;;;10.20;1.00;;;;;;5034211;28;20364;-78
2023/01/12 13:45:54;;;;;;;5.97;2.00;;;10.20;1.00;;;;;;5038627;28;20056;-78
2023/01/12 13:48:21;;;;;;;11.05;2.65;;;10.20;1.00;;;;;;5030166;28;20060;-80
2023/01/12 13:50:51;;;;;;;7.65;2.40;;;10.20;1.00;;;;;;5041995;28;20036;-80
2023/01/12 13:53:26;;;;;;;4.90;1.02;;;10.10;1.00;;;;;;5059685;28;20470;-82
2023/01/12 13:56:04;;;;;;;3.50;0.98;;;10.20;1.00;;;;;;5070232;28;20055;-81
2023/01/12 13:59:05;;;;;;;5.82;2.72;;;10.20;1.00;;;;;;5033253;28;20037;-77
2023/01/12 14:01:34;;;;;;;2.90;1.07;;;10.20;1.00;;;;;;5041025;28;20041;-79